Batavia, NY

12:31 AM EST on March 04, 2015 (GMT -0500)
Violet Ln. | Change Station
CLOSE
Current Station
Personal Weather Station
Location: Batavia, NY
Elevation: 893 ft
Nearby Weather Stations

Elev 893 ft 43.01 °N, 78.15 °W | Updated 1 minute ago

Overcast
Overcast
33.6 °F
Feels Like 25 °F
N
12.3
Wind Variable Wind from West
Gusts 23.7 mph

Today
High -- | Low -- °F
--% Chance of Precip.
Yesterday
High -- | Low -- °F
Precip. -- in
6:44 AM 6:05 PM
Waxing Gibbous, 98% visible
Pressure 29.69 in
Visibility 5.0 miles
Clouds Mostly Cloudy 800 ft
Overcast 1100 ft
Windchill 25 °F
Dew Point 30 °F
Humidity 85%
Rainfall 0.00 in
Snow Depth Not available.
UV 0 out of 12
Pollen .40 out of 12
Air Quality Not available.
Flu Activity Not available.
METAR KBUF 040454Z 24016KT 5SM -RA BR BKN008 OVC011 02/00 A2966 RMK AO2 PK WND 25029/0423 SLP052 RAB05 P0000 T00170000 400331150

More Conditions Fewer Conditions

Pressure 29.69 in
Visibility 5.0 miles
Clouds Mostly Cloudy 800 ft
Overcast 1100 ft
Windchill 25 °F
Dew Point 30 °F
Humidity 85%
Rainfall 0.00 in
Snow Depth Not available.
UV 0 out of 12
Pollen .40 out of 12
Air Quality Not available.
Flu Activity Not available.
METAR KBUF 040454Z 24016KT 5SM -RA BR BKN008 OVC011 02/00 A2966 RMK AO2 PK WND 25029/0423 SLP052 RAB05 P0000 T00170000 400331150

More Conditions Fewer Conditions

10-Day Weather Forecast

Almanac

Astronomy

Mar. 04, 2015 Rise Set
Actual Time
Civil Twilight
Nautical Twilight
Astronomical Twilight
Moon
Length of Visible Light
Length of Day
Tomorrow will be .
, % of the Moon is Illuminated

Today's Extremes

State Highs State Lows

Community

WunderPhotos

Upload Photos

1,802,400 photos uploaded!

WunderBlogs® & News

Nearby

Air Quality

  Air Quality AQ Index Pollutant
Not available.

Snow Depth

Station Depth Elevation

Earthquake Activity

City Distance Mag. Time & Date
Minimum magnitude displayed is 2.5.

Coastal Water Temperatures

Place Temperature

Nearby Weather Stations